sensor_id;sensor_type;location;lat;lon;timestamp;P1;durP1;ratioP1;P2;durP2;ratioP2
13975;SDS011;7062;49.792;9.946;2023-03-04T00:01:38;10.63;;;7.77;;
13975;SDS011;7062;49.792;9.946;2023-03-04T00:04:03;12.47;;;9.00;;
13975;SDS011;7062;49.792;9.946;2023-03-04T00:06:29;13.20;;;8.83;;
13975;SDS011;7062;49.792;9.946;2023-03-04T00:08:55;15.23;;;9.33;;
13975;SDS011;7062;49.792;9.946;2023-03-04T00:11:21;14.70;;;8.03;;
13975;SDS011;7062;49.792;9.946;2023-03-04T00:13:46;13.57;;;8.37;;
13975;SDS011;7062;49.792;9.946;2023-03-04T00:16:12;11.73;;;7.93;;
13975;SDS011;7062;49.792;9.946;2023-03-04T00:18:37;13.07;;;8.77;;
13975;SDS011;7062;49.792;9.946;2023-03-04T00:21:03;13.20;;;8.37;;
13975;SDS011;7062;49.792;9.946;2023-03-04T00:23:29;16.23;;;9.17;;
13975;SDS011;7062;49.792;9.946;2023-03-04T00:25:54;12.57;;;9.77;;
13975;SDS011;7062;49.792;9.946;2023-03-04T00:28:20;12.93;;;8.47;;
13975;SDS011;7062;49.792;9.946;2023-03-04T00:30:46;15.13;;;8.90;;
13975;SDS011;7062;49.792;9.946;2023-03-04T00:33:11;14.27;;;8.43;;
13975;SDS011;7062;49.792;9.946;2023-03-04T00:35:37;12.97;;;8.43;;
13975;SDS011;7062;49.792;9.946;2023-03-04T00:38:03;15.07;;;9.23;;
13975;SDS011;7062;49.792;9.946;2023-03-04T00:40:28;13.97;;;8.83;;
13975;SDS011;7062;49.792;9.946;2023-03-04T00:42:54;13.27;;;8.77;;
13975;SDS011;7062;49.792;9.946;2023-03-04T00:45:19;11.77;;;8.80;;
13975;SDS011;7062;49.792;9.946;2023-03-04T00:47:45;11.43;;;8.10;;
13975;SDS011;7062;49.792;9.946;2023-03-04T00:50:11;14.93;;;8.70;;
13975;SDS011;7062;49.792;9.946;2023-03-04T00:52:36;15.43;;;9.07;;
13975;SDS011;7062;49.792;9.946;2023-03-04T00:55:02;17.40;;;9.20;;
13975;SDS011;7062;49.792;9.946;2023-03-04T00:57:28;14.30;;;8.25;;
13975;SDS011;7062;49.792;9.946;2023-03-04T00:59:54;13.17;;;8.57;;
13975;SDS011;7062;49.792;9.946;2023-03-04T01:02:19;15.67;;;9.10;;
13975;SDS011;7062;49.792;9.946;2023-03-04T01:04:45;14.93;;;9.17;;
13975;SDS011;7062;49.792;9.946;2023-03-04T01:07:11;24.50;;;11.87;;
13975;SDS011;7062;49.792;9.946;2023-03-04T01:09:36;14.63;;;9.20;;
13975;SDS011;7062;49.792;9.946;2023-03-04T01:12:02;16.80;;;10.30;;
13975;SDS011;7062;49.792;9.946;2023-03-04T01:14:28;23.48;;;11.25;;
13975;SDS011;7062;49.792;9.946;2023-03-04T01:16:54;18.67;;;11.23;;
13975;SDS011;7062;49.792;9.946;2023-03-04T01:19:19;18.67;;;11.23;;
13975;SDS011;7062;49.792;9.946;2023-03-04T01:21:45;19.17;;;12.10;;
13975;SDS011;7062;49.792;9.946;2023-03-04T01:24:11;16.30;;;10.93;;
13975;SDS011;7062;49.792;9.946;2023-03-04T01:26:36;17.83;;;10.80;;
13975;SDS011;7062;49.792;9.946;2023-03-04T01:29:02;17.10;;;11.53;;
13975;SDS011;7062;49.792;9.946;2023-03-04T01:31:28;17.90;;;11.63;;
13975;SDS011;7062;49.792;9.946;2023-03-04T01:33:54;16.20;;;11.83;;
13975;SDS011;7062;49.792;9.946;2023-03-04T01:36:19;17.93;;;12.30;;
13975;SDS011;7062;49.792;9.946;2023-03-04T01:38:45;16.70;;;12.13;;
13975;SDS011;7062;49.792;9.946;2023-03-04T01:41:11;21.33;;;11.20;;
13975;SDS011;7062;49.792;9.946;2023-03-04T01:43:38;18.30;;;11.40;;
13975;SDS011;7062;49.792;9.946;2023-03-04T01:46:04;17.53;;;12.57;;
13975;SDS011;7062;49.792;9.946;2023-03-04T01:48:31;18.83;;;12.50;;
13975;SDS011;7062;49.792;9.946;2023-03-04T01:51:02;16.33;;;11.57;;
13975;SDS011;7062;49.792;9.946;2023-03-04T01:53:35;14.05;;;11.65;;
13975;SDS011;7062;49.792;9.946;2023-03-04T01:56:01;18.13;;;11.77;;
13975;SDS011;7062;49.792;9.946;2023-03-04T01:58:35;18.17;;;12.63;;
13975;SDS011;7062;49.792;9.946;2023-03-04T02:01:01;16.90;;;11.90;;
13975;SDS011;7062;49.792;9.946;2023-03-04T02:03:27;16.10;;;11.43;;
13975;SDS011;7062;49.792;9.946;2023-03-04T02:05:53;17.02;;;11.40;;
13975;SDS011;7062;49.792;9.946;2023-03-04T02:08:20;20.90;;;12.15;;
13975;SDS011;7062;49.792;9.946;2023-03-04T02:10:47;17.58;;;11.27;;
13975;SDS011;7062;49.792;9.946;2023-03-04T02:13:14;17.80;;;11.57;;
13975;SDS011;7062;49.792;9.946;2023-03-04T02:15:44;19.00;;;13.57;;
13975;SDS011;7062;49.792;9.946;2023-03-04T02:18:17;17.65;;;11.38;;
13975;SDS011;7062;49.792;9.946;2023-03-04T02:20:50;17.55;;;11.45;;
13975;SDS011;7062;49.792;9.946;2023-03-04T02:26:16;16.63;;;12.15;;
13975;SDS011;7062;49.792;9.946;2023-03-04T02:28:43;20.63;;;12.32;;
13975;SDS011;7062;49.792;9.946;2023-03-04T02:31:20;20.05;;;13.32;;
13975;SDS011;7062;49.792;9.946;2023-03-04T02:34:06;15.30;;;11.85;;
13975;SDS011;7062;49.792;9.946;2023-03-04T02:36:46;15.63;;;10.00;;
13975;SDS011;7062;49.792;9.946;2023-03-04T02:41:49;17.05;;;11.25;;
13975;SDS011;7062;49.792;9.946;2023-03-04T02:44:21;21.83;;;13.57;;
13975;SDS011;7062;49.792;9.946;2023-03-04T02:46:52;18.08;;;11.05;;
13975;SDS011;7062;49.792;9.946;2023-03-04T02:49:19;18.25;;;12.35;;
13975;SDS011;7062;49.792;9.946;2023-03-04T02:51:45;15.25;;;11.50;;
13975;SDS011;7062;49.792;9.946;2023-03-04T02:54:19;16.27;;;11.13;;
13975;SDS011;7062;49.792;9.946;2023-03-04T02:56:46;18.48;;;12.93;;
13975;SDS011;7062;49.792;9.946;2023-03-04T02:59:13;15.32;;;10.75;;
13975;SDS011;7062;49.792;9.946;2023-03-04T03:01:39;18.45;;;12.77;;
13975;SDS011;7062;49.792;9.946;2023-03-04T03:04:05;16.00;;;11.93;;
13975;SDS011;7062;49.792;9.946;2023-03-04T03:06:31;16.37;;;12.53;;
13975;SDS011;7062;49.792;9.946;2023-03-04T03:08:56;16.63;;;11.90;;
13975;SDS011;7062;49.792;9.946;2023-03-04T03:11:22;16.67;;;12.53;;
13975;SDS011;7062;49.792;9.946;2023-03-04T03:13:47;19.63;;;13.73;;
13975;SDS011;7062;49.792;9.946;2023-03-04T03:16:13;17.57;;;12.53;;
13975;SDS011;7062;49.792;9.946;2023-03-04T03:18:39;19.77;;;12.73;;
13975;SDS011;7062;49.792;9.946;2023-03-04T03:21:05;22.70;;;12.98;;
13975;SDS011;7062;49.792;9.946;2023-03-04T03:23:31;22.00;;;13.73;;
13975;SDS011;7062;49.792;9.946;2023-03-04T03:25:56;17.17;;;13.50;;
13975;SDS011;7062;49.792;9.946;2023-03-04T03:28:22;22.03;;;13.90;;
13975;SDS011;7062;49.792;9.946;2023-03-04T03:30:48;19.10;;;11.93;;
13975;SDS011;7062;49.792;9.946;2023-03-04T03:33:13;19.63;;;12.47;;
13975;SDS011;7062;49.792;9.946;2023-03-04T03:35:39;20.30;;;12.43;;
13975;SDS011;7062;49.792;9.946;2023-03-04T03:38:05;15.17;;;11.87;;
13975;SDS011;7062;49.792;9.946;2023-03-04T03:40:30;20.57;;;12.70;;
13975;SDS011;7062;49.792;9.946;2023-03-04T03:42:56;17.67;;;12.37;;
13975;SDS011;7062;49.792;9.946;2023-03-04T03:45:21;16.03;;;12.20;;
13975;SDS011;7062;49.792;9.946;2023-03-04T03:47:47;17.70;;;12.20;;
13975;SDS011;7062;49.792;9.946;2023-03-04T03:50:13;18.07;;;12.87;;
13975;SDS011;7062;49.792;9.946;2023-03-04T03:52:38;18.37;;;13.00;;
13975;SDS011;7062;49.792;9.946;2023-03-04T03:55:04;19.63;;;12.87;;
13975;SDS011;7062;49.792;9.946;2023-03-04T03:57:30;18.05;;;13.07;;
13975;SDS011;7062;49.792;9.946;2023-03-04T03:59:56;17.87;;;11.97;;
13975;SDS011;7062;49.792;9.946;2023-03-04T04:02:21;16.80;;;11.80;;
13975;SDS011;7062;49.792;9.946;2023-03-04T04:04:47;18.70;;;13.50;;
13975;SDS011;7062;49.792;9.946;2023-03-04T04:07:13;15.67;;;10.93;;
13975;SDS011;7062;49.792;9.946;2023-03-04T04:09:39;17.00;;;11.80;;
13975;SDS011;7062;49.792;9.946;2023-03-04T04:12:05;17.73;;;12.67;;
13975;SDS011;7062;49.792;9.946;2023-03-04T04:14:31;17.40;;;12.30;;
13975;SDS011;7062;49.792;9.946;2023-03-04T04:16:57;17.25;;;12.02;;
13975;SDS011;7062;49.792;9.946;2023-03-04T04:19:22;18.27;;;12.23;;
13975;SDS011;7062;49.792;9.946;2023-03-04T04:21:48;16.73;;;11.70;;
13975;SDS011;7062;49.792;9.946;2023-03-04T04:24:14;17.60;;;12.13;;
13975;SDS011;7062;49.792;9.946;2023-03-04T04:26:40;18.77;;;13.00;;
13975;SDS011;7062;49.792;9.946;2023-03-04T04:29:06;15.18;;;11.60;;
13975;SDS011;7062;49.792;9.946;2023-03-04T04:31:33;15.57;;;11.95;;
13975;SDS011;7062;49.792;9.946;2023-03-04T04:33:59;18.00;;;11.60;;
13975;SDS011;7062;49.792;9.946;2023-03-04T04:36:24;18.83;;;12.00;;
13975;SDS011;7062;49.792;9.946;2023-03-04T04:38:51;15.18;;;11.95;;
13975;SDS011;7062;49.792;9.946;2023-03-04T04:41:24;16.67;;;12.02;;
13975;SDS011;7062;49.792;9.946;2023-03-04T04:43:52;19.70;;;12.35;;
13975;SDS011;7062;49.792;9.946;2023-03-04T04:46:18;19.93;;;12.23;;
13975;SDS011;7062;49.792;9.946;2023-03-04T04:48:45;17.10;;;13.40;;
13975;SDS011;7062;49.792;9.946;2023-03-04T04:51:10;17.43;;;11.27;;
13975;SDS011;7062;49.792;9.946;2023-03-04T04:53:36;15.88;;;12.63;;
13975;SDS011;7062;49.792;9.946;2023-03-04T04:56:09;17.80;;;11.23;;
13975;SDS011;7062;49.792;9.946;2023-03-04T04:58:39;18.90;;;12.52;;
13975;SDS011;7062;49.792;9.946;2023-03-04T05:01:05;19.37;;;11.80;;
13975;SDS011;7062;49.792;9.946;2023-03-04T05:03:31;15.97;;;10.77;;
13975;SDS011;7062;49.792;9.946;2023-03-04T05:05:58;15.68;;;11.43;;
13975;SDS011;7062;49.792;9.946;2023-03-04T05:08:24;17.47;;;11.83;;
13975;SDS011;7062;49.792;9.946;2023-03-04T05:10:50;17.37;;;11.60;;
13975;SDS011;7062;49.792;9.946;2023-03-04T05:13:16;15.25;;;11.25;;
13975;SDS011;7062;49.792;9.946;2023-03-04T05:15:43;15.75;;;11.95;;
13975;SDS011;7062;49.792;9.946;2023-03-04T05:18:09;16.67;;;11.93;;
13975;SDS011;7062;49.792;9.946;2023-03-04T05:20:35;14.83;;;11.90;;
13975;SDS011;7062;49.792;9.946;2023-03-04T05:23:00;20.30;;;12.03;;
13975;SDS011;7062;49.792;9.946;2023-03-04T05:25:26;18.90;;;11.03;;
13975;SDS011;7062;49.792;9.946;2023-03-04T05:27:51;13.93;;;11.60;;
13975;SDS011;7062;49.792;9.946;2023-03-04T05:30:17;15.50;;;11.17;;
13975;SDS011;7062;49.792;9.946;2023-03-04T05:32:43;16.57;;;12.33;;
13975;SDS011;7062;49.792;9.946;2023-03-04T05:35:08;19.17;;;11.70;;
13975;SDS011;7062;49.792;9.946;2023-03-04T05:37:34;17.33;;;11.77;;
13975;SDS011;7062;49.792;9.946;2023-03-04T05:39:59;16.93;;;13.00;;
13975;SDS011;7062;49.792;9.946;2023-03-04T05:42:25;20.97;;;12.67;;
13975;SDS011;7062;49.792;9.946;2023-03-04T05:44:51;14.97;;;11.30;;
13975;SDS011;7062;49.792;9.946;2023-03-04T05:47:16;18.13;;;12.70;;
13975;SDS011;7062;49.792;9.946;2023-03-04T05:49:42;16.50;;;11.47;;
13975;SDS011;7062;49.792;9.946;2023-03-04T05:52:08;15.43;;;11.90;;
13975;SDS011;7062;49.792;9.946;2023-03-04T05:54:34;16.77;;;11.25;;
13975;SDS011;7062;49.792;9.946;2023-03-04T05:57:00;17.30;;;12.43;;
13975;SDS011;7062;49.792;9.946;2023-03-04T05:59:26;18.87;;;12.63;;
13975;SDS011;7062;49.792;9.946;2023-03-04T06:01:52;15.90;;;11.97;;
13975;SDS011;7062;49.792;9.946;2023-03-04T06:04:18;15.97;;;11.40;;
13975;SDS011;7062;49.792;9.946;2023-03-04T06:06:43;16.33;;;11.20;;
13975;SDS011;7062;49.792;9.946;2023-03-04T06:09:11;16.08;;;11.65;;
13975;SDS011;7062;49.792;9.946;2023-03-04T06:11:37;15.02;;;11.68;;
13975;SDS011;7062;49.792;9.946;2023-03-04T06:14:03;17.40;;;11.23;;
13975;SDS011;7062;49.792;9.946;2023-03-04T06:16:29;16.95;;;12.25;;
13975;SDS011;7062;49.792;9.946;2023-03-04T06:18:55;15.50;;;11.83;;
13975;SDS011;7062;49.792;9.946;2023-03-04T06:21:20;17.53;;;12.43;;
13975;SDS011;7062;49.792;9.946;2023-03-04T06:23:46;20.23;;;13.53;;
13975;SDS011;7062;49.792;9.946;2023-03-04T06:26:12;15.47;;;11.70;;
13975;SDS011;7062;49.792;9.946;2023-03-04T06:28:40;13.60;;;10.43;;
13975;SDS011;7062;49.792;9.946;2023-03-04T06:31:06;15.63;;;11.27;;
13975;SDS011;7062;49.792;9.946;2023-03-04T06:33:32;20.87;;;11.57;;
13975;SDS011;7062;49.792;9.946;2023-03-04T06:35:57;14.82;;;11.57;;
13975;SDS011;7062;49.792;9.946;2023-03-04T06:38:24;15.23;;;10.80;;
13975;SDS011;7062;49.792;9.946;2023-03-04T06:40:50;16.25;;;11.77;;
13975;SDS011;7062;49.792;9.946;2023-03-04T06:43:15;14.90;;;11.43;;
13975;SDS011;7062;49.792;9.946;2023-03-04T06:45:41;15.07;;;10.73;;
13975;SDS011;7062;49.792;9.946;2023-03-04T06:48:07;13.40;;;10.93;;
13975;SDS011;7062;49.792;9.946;2023-03-04T06:50:33;13.57;;;10.70;;
13975;SDS011;7062;49.792;9.946;2023-03-04T06:52:58;16.20;;;10.97;;
13975;SDS011;7062;49.792;9.946;2023-03-04T06:55:24;13.17;;;10.63;;
13975;SDS011;7062;49.792;9.946;2023-03-04T06:57:50;15.10;;;11.30;;
13975;SDS011;7062;49.792;9.946;2023-03-04T07:00:15;14.57;;;10.80;;
13975;SDS011;7062;49.792;9.946;2023-03-04T07:02:41;19.83;;;11.70;;
13975;SDS011;7062;49.792;9.946;2023-03-04T07:05:08;16.23;;;11.23;;
13975;SDS011;7062;49.792;9.946;2023-03-04T07:07:34;14.80;;;10.85;;
13975;SDS011;7062;49.792;9.946;2023-03-04T07:10:00;14.73;;;11.17;;
13975;SDS011;7062;49.792;9.946;2023-03-04T07:12:26;18.10;;;12.30;;
13975;SDS011;7062;49.792;9.946;2023-03-04T07:14:51;16.47;;;11.77;;
13975;SDS011;7062;49.792;9.946;2023-03-04T07:17:17;12.20;;;10.10;;
13975;SDS011;7062;49.792;9.946;2023-03-04T07:19:43;17.47;;;14.10;;
13975;SDS011;7062;49.792;9.946;2023-03-04T07:22:08;13.83;;;10.77;;
13975;SDS011;7062;49.792;9.946;2023-03-04T07:24:34;17.03;;;10.10;;
13975;SDS011;7062;49.792;9.946;2023-03-04T07:27:00;14.33;;;12.33;;
13975;SDS011;7062;49.792;9.946;2023-03-04T07:29:26;13.97;;;11.17;;
13975;SDS011;7062;49.792;9.946;2023-03-04T07:31:51;14.33;;;11.33;;
13975;SDS011;7062;49.792;9.946;2023-03-04T07:34:17;13.93;;;9.83;;
13975;SDS011;7062;49.792;9.946;2023-03-04T07:36:43;15.23;;;10.93;;
13975;SDS011;7062;49.792;9.946;2023-03-04T07:39:09;15.48;;;10.55;;
13975;SDS011;7062;49.792;9.946;2023-03-04T07:41:37;12.88;;;11.15;;
13975;SDS011;7062;49.792;9.946;2023-03-04T07:44:03;15.57;;;10.75;;
13975;SDS011;7062;49.792;9.946;2023-03-04T07:46:30;17.92;;;11.23;;
13975;SDS011;7062;49.792;9.946;2023-03-04T07:48:56;18.10;;;11.85;;
13975;SDS011;7062;49.792;9.946;2023-03-04T07:51:23;14.07;;;10.63;;
13975;SDS011;7062;49.792;9.946;2023-03-04T07:53:51;14.68;;;9.90;;
13975;SDS011;7062;49.792;9.946;2023-03-04T07:56:19;15.25;;;11.55;;
13975;SDS011;7062;49.792;9.946;2023-03-04T07:58:46;16.17;;;10.93;;
13975;SDS011;7062;49.792;9.946;2023-03-04T08:01:17;16.83;;;11.60;;
13975;SDS011;7062;49.792;9.946;2023-03-04T08:03:44;13.98;;;10.52;;
13975;SDS011;7062;49.792;9.946;2023-03-04T08:06:11;13.03;;;9.80;;
13975;SDS011;7062;49.792;9.946;2023-03-04T08:08:38;14.65;;;10.82;;
13975;SDS011;7062;49.792;9.946;2023-03-04T08:11:05;15.65;;;10.73;;
13975;SDS011;7062;49.792;9.946;2023-03-04T08:13:32;16.33;;;11.73;;
13975;SDS011;7062;49.792;9.946;2023-03-04T08:15:58;13.52;;;11.15;;
13975;SDS011;7062;49.792;9.946;2023-03-04T08:18:24;15.10;;;10.00;;
13975;SDS011;7062;49.792;9.946;2023-03-04T08:20:50;13.30;;;10.40;;
13975;SDS011;7062;49.792;9.946;2023-03-04T08:23:16;12.63;;;10.65;;
13975;SDS011;7062;49.792;9.946;2023-03-04T08:25:42;13.57;;;10.63;;
13975;SDS011;7062;49.792;9.946;2023-03-04T08:28:08;13.50;;;11.17;;
13975;SDS011;7062;49.792;9.946;2023-03-04T08:30:36;14.13;;;10.23;;
13975;SDS011;7062;49.792;9.946;2023-03-04T08:33:02;14.55;;;11.07;;
13975;SDS011;7062;49.792;9.946;2023-03-04T08:35:28;15.23;;;10.73;;
13975;SDS011;7062;49.792;9.946;2023-03-04T08:37:54;13.47;;;10.67;;
13975;SDS011;7062;49.792;9.946;2023-03-04T08:40:19;18.63;;;10.63;;
13975;SDS011;7062;49.792;9.946;2023-03-04T08:42:45;13.63;;;10.50;;
13975;SDS011;7062;49.792;9.946;2023-03-04T08:45:11;12.13;;;9.83;;
13975;SDS011;7062;49.792;9.946;2023-03-04T08:47:37;14.07;;;10.27;;
13975;SDS011;7062;49.792;9.946;2023-03-04T08:50:03;12.07;;;10.48;;
13975;SDS011;7062;49.792;9.946;2023-03-04T08:52:29;15.40;;;11.05;;
13975;SDS011;7062;49.792;9.946;2023-03-04T08:54:55;14.47;;;10.03;;
13975;SDS011;7062;49.792;9.946;2023-03-04T08:57:21;13.67;;;10.63;;
13975;SDS011;7062;49.792;9.946;2023-03-04T08:59:47;13.87;;;11.67;;
13975;SDS011;7062;49.792;9.946;2023-03-04T09:02:12;13.53;;;10.60;;
13975;SDS011;7062;49.792;9.946;2023-03-04T09:04:38;12.10;;;10.60;;
13975;SDS011;7062;49.792;9.946;2023-03-04T09:07:04;19.33;;;11.07;;
13975;SDS011;7062;49.792;9.946;2023-03-04T09:09:30;11.93;;;10.00;;
13975;SDS011;7062;49.792;9.946;2023-03-04T09:11:55;12.33;;;9.13;;
13975;SDS011;7062;49.792;9.946;2023-03-04T09:14:21;16.33;;;11.20;;
13975;SDS011;7062;49.792;9.946;2023-03-04T09:16:47;18.80;;;11.87;;
13975;SDS011;7062;49.792;9.946;2023-03-04T09:19:13;14.23;;;10.17;;
13975;SDS011;7062;49.792;9.946;2023-03-04T09:21:38;11.37;;;9.70;;
13975;SDS011;7062;49.792;9.946;2023-03-04T09:24:04;11.50;;;9.73;;
13975;SDS011;7062;49.792;9.946;2023-03-04T09:26:30;14.40;;;10.10;;
13975;SDS011;7062;49.792;9.946;2023-03-04T09:28:57;12.90;;;10.07;;
13975;SDS011;7062;49.792;9.946;2023-03-04T09:31:25;10.75;;;9.65;;
13975;SDS011;7062;49.792;9.946;2023-03-04T09:33:52;14.38;;;9.65;;
13975;SDS011;7062;49.792;9.946;2023-03-04T09:36:18;13.65;;;10.32;;
13975;SDS011;7062;49.792;9.946;2023-03-04T09:38:44;10.67;;;8.60;;
13975;SDS011;7062;49.792;9.946;2023-03-04T09:41:20;14.02;;;9.77;;
13975;SDS011;7062;49.792;9.946;2023-03-04T09:43:50;18.85;;;10.55;;
13975;SDS011;7062;49.792;9.946;2023-03-04T09:46:21;18.55;;;10.52;;
13975;SDS011;7062;49.792;9.946;2023-03-04T09:48:56;14.10;;;9.77;;
13975;SDS011;7062;49.792;9.946;2023-03-04T09:56:41;11.55;;;9.40;;
13975;SDS011;7062;49.792;9.946;2023-03-04T10:01:59;14.27;;;9.27;;
13975;SDS011;7062;49.792;9.946;2023-03-04T10:04:41;10.90;;;8.00;;
13975;SDS011;7062;49.792;9.946;2023-03-04T10:07:23;12.55;;;8.93;;
13975;SDS011;7062;49.792;9.946;2023-03-04T10:12:35;11.95;;;9.23;;
13975;SDS011;7062;49.792;9.946;2023-03-04T10:15:05;11.75;;;8.38;;
13975;SDS011;7062;49.792;9.946;2023-03-04T10:17:43;15.15;;;10.60;;
13975;SDS011;7062;49.792;9.946;2023-03-04T10:20:18;13.63;;;9.50;;
13975;SDS011;7062;49.792;9.946;2023-03-04T10:22:52;15.10;;;9.77;;
13975;SDS011;7062;49.792;9.946;2023-03-04T10:25:25;16.17;;;8.77;;
13975;SDS011;7062;49.792;9.946;2023-03-04T10:27:57;14.98;;;10.07;;
13975;SDS011;7062;49.792;9.946;2023-03-04T10:33:16;10.68;;;9.27;;
13975;SDS011;7062;49.792;9.946;2023-03-04T10:35:45;15.75;;;9.35;;
13975;SDS011;7062;49.792;9.946;2023-03-04T10:38:18;13.77;;;9.63;;
13975;SDS011;7062;49.792;9.946;2023-03-04T10:40:45;13.38;;;9.65;;
13975;SDS011;7062;49.792;9.946;2023-03-04T10:43:17;11.10;;;9.23;;
13975;SDS011;7062;49.792;9.946;2023-03-04T10:45:44;13.07;;;9.30;;
13975;SDS011;7062;49.792;9.946;2023-03-04T10:48:21;13.32;;;9.20;;
13975;SDS011;7062;49.792;9.946;2023-03-04T10:50:52;14.27;;;8.32;;
13975;SDS011;7062;49.792;9.946;2023-03-04T10:53:27;13.07;;;9.45;;
13975;SDS011;7062;49.792;9.946;2023-03-04T10:56:00;10.93;;;8.00;;
13975;SDS011;7062;49.792;9.946;2023-03-04T10:58:27;17.30;;;8.80;;
13975;SDS011;7062;49.792;9.946;2023-03-04T11:01:05;15.90;;;9.17;;
13975;SDS011;7062;49.792;9.946;2023-03-04T11:03:38;16.20;;;8.32;;
13975;SDS011;7062;49.792;9.946;2023-03-04T11:08:44;14.77;;;8.27;;
13975;SDS011;7062;49.792;9.946;2023-03-04T11:11:22;17.45;;;8.05;;
13975;SDS011;7062;49.792;9.946;2023-03-04T11:13:55;12.60;;;7.47;;
13975;SDS011;7062;49.792;9.946;2023-03-04T11:16:28;13.55;;;7.55;;
13975;SDS011;7062;49.792;9.946;2023-03-04T11:18:58;12.65;;;7.85;;
13975;SDS011;7062;49.792;9.946;2023-03-04T11:21:29;14.75;;;7.25;;
13975;SDS011;7062;49.792;9.946;2023-03-04T11:29:43;17.60;;;6.85;;
13975;SDS011;7062;49.792;9.946;2023-03-04T11:32:20;13.70;;;8.70;;
13975;SDS011;7062;49.792;9.946;2023-03-04T11:38:01;15.27;;;7.38;;
13975;SDS011;7062;49.792;9.946;2023-03-04T11:41:19;15.43;;;7.03;;
13975;SDS011;7062;49.792;9.946;2023-03-04T11:43:41;14.40;;;6.80;;
13975;SDS011;7062;49.792;9.946;2023-03-04T11:57:11;12.77;;;6.22;;
13975;SDS011;7062;49.792;9.946;2023-03-04T11:59:54;17.80;;;7.47;;
13975;SDS011;7062;49.792;9.946;2023-03-04T12:02:42;11.63;;;6.35;;
13975;SDS011;7062;49.792;9.946;2023-03-04T12:08:17;9.63;;;5.97;;
13975;SDS011;7062;49.792;9.946;2023-03-04T12:11:02;13.88;;;6.45;;
13975;SDS011;7062;49.792;9.946;2023-03-04T12:16:14;14.13;;;6.60;;
13975;SDS011;7062;49.792;9.946;2023-03-04T12:41:36;19.35;;;9.63;;
13975;SDS011;7062;49.792;9.946;2023-03-04T12:44:16;17.05;;;6.25;;
13975;SDS011;7062;49.792;9.946;2023-03-04T12:47:04;12.00;;;5.40;;
13975;SDS011;7062;49.792;9.946;2023-03-04T12:54:36;7.57;;;5.32;;
13975;SDS011;7062;49.792;9.946;2023-03-04T12:57:09;11.57;;;5.05;;
13975;SDS011;7062;49.792;9.946;2023-03-04T12:59:42;12.40;;;5.45;;
13975;SDS011;7062;49.792;9.946;2023-03-04T13:14:00;12.20;;;5.72;;
13975;SDS011;7062;49.792;9.946;2023-03-04T13:16:52;10.88;;;5.70;;
13975;SDS011;7062;49.792;9.946;2023-03-04T13:25:49;9.85;;;6.03;;
13975;SDS011;7062;49.792;9.946;2023-03-04T13:51:15;10.52;;;5.40;;
13975;SDS011;7062;49.792;9.946;2023-03-04T13:56:27;9.23;;;5.20;;
13975;SDS011;7062;49.792;9.946;2023-03-04T14:06:42;12.73;;;5.88;;
13975;SDS011;7062;49.792;9.946;2023-03-04T14:09:14;13.57;;;6.07;;
13975;SDS011;7062;49.792;9.946;2023-03-04T14:11:41;8.15;;;5.28;;
13975;SDS011;7062;49.792;9.946;2023-03-04T14:14:10;10.45;;;5.78;;
13975;SDS011;7062;49.792;9.946;2023-03-04T14:16:44;9.48;;;5.28;;
13975;SDS011;7062;49.792;9.946;2023-03-04T14:19:24;11.13;;;5.50;;
13975;SDS011;7062;49.792;9.946;2023-03-04T14:21:55;10.90;;;5.05;;
13975;SDS011;7062;49.792;9.946;2023-03-04T14:24:21;11.52;;;5.53;;
13975;SDS011;7062;49.792;9.946;2023-03-04T14:26:48;11.32;;;5.53;;
13975;SDS011;7062;49.792;9.946;2023-03-04T14:29:27;10.77;;;5.13;;
13975;SDS011;7062;49.792;9.946;2023-03-04T14:31:55;9.88;;;4.65;;
13975;SDS011;7062;49.792;9.946;2023-03-04T14:34:23;10.63;;;4.93;;
13975;SDS011;7062;49.792;9.946;2023-03-04T14:36:58;16.13;;;4.82;;
13975;SDS011;7062;49.792;9.946;2023-03-04T14:39:25;8.83;;;5.20;;
13975;SDS011;7062;49.792;9.946;2023-03-04T14:41:53;10.43;;;5.22;;
13975;SDS011;7062;49.792;9.946;2023-03-04T14:47:21;11.52;;;5.13;;
13975;SDS011;7062;49.792;9.946;2023-03-04T14:49:59;8.57;;;4.57;;
13975;SDS011;7062;49.792;9.946;2023-03-04T14:52:26;9.77;;;6.03;;
13975;SDS011;7062;49.792;9.946;2023-03-04T14:55:08;10.20;;;5.67;;
13975;SDS011;7062;49.792;9.946;2023-03-04T14:57:41;14.57;;;5.65;;
13975;SDS011;7062;49.792;9.946;2023-03-04T15:02:41;9.15;;;5.63;;
13975;SDS011;7062;49.792;9.946;2023-03-04T15:05:09;12.52;;;6.63;;
13975;SDS011;7062;49.792;9.946;2023-03-04T15:07:41;18.83;;;7.70;;
13975;SDS011;7062;49.792;9.946;2023-03-04T15:10:10;11.82;;;6.78;;
13975;SDS011;7062;49.792;9.946;2023-03-04T15:12:36;13.20;;;7.40;;
13975;SDS011;7062;49.792;9.946;2023-03-04T15:15:04;14.07;;;8.80;;
13975;SDS011;7062;49.792;9.946;2023-03-04T15:17:59;16.15;;;8.48;;
13975;SDS011;7062;49.792;9.946;2023-03-04T15:20:27;29.60;;;12.10;;
13975;SDS011;7062;49.792;9.946;2023-03-04T15:23:02;13.73;;;7.93;;
13975;SDS011;7062;49.792;9.946;2023-03-04T15:25:31;34.00;;;15.40;;
13975;SDS011;7062;49.792;9.946;2023-03-04T15:28:01;18.95;;;8.48;;
13975;SDS011;7062;49.792;9.946;2023-03-04T15:30:30;15.07;;;8.02;;
13975;SDS011;7062;49.792;9.946;2023-03-04T15:32:57;16.55;;;8.10;;
13975;SDS011;7062;49.792;9.946;2023-03-04T15:35:26;14.95;;;8.57;;
13975;SDS011;7062;49.792;9.946;2023-03-04T15:37:54;14.30;;;9.20;;
13975;SDS011;7062;49.792;9.946;2023-03-04T15:40:28;13.10;;;7.97;;
13975;SDS011;7062;49.792;9.946;2023-03-04T15:42:55;14.23;;;8.25;;
13975;SDS011;7062;49.792;9.946;2023-03-04T15:45:23;16.27;;;8.57;;
13975;SDS011;7062;49.792;9.946;2023-03-04T15:48:01;11.98;;;7.15;;
13975;SDS011;7062;49.792;9.946;2023-03-04T15:50:31;17.58;;;9.68;;
13975;SDS011;7062;49.792;9.946;2023-03-04T15:53:00;18.50;;;8.85;;
13975;SDS011;7062;49.792;9.946;2023-03-04T15:55:27;16.23;;;8.77;;
13975;SDS011;7062;49.792;9.946;2023-03-04T15:57:55;17.17;;;8.80;;
13975;SDS011;7062;49.792;9.946;2023-03-04T16:00:23;12.18;;;7.28;;
13975;SDS011;7062;49.792;9.946;2023-03-04T16:02:48;17.03;;;9.17;;
13975;SDS011;7062;49.792;9.946;2023-03-04T16:05:14;16.30;;;8.37;;
13975;SDS011;7062;49.792;9.946;2023-03-04T16:07:41;15.63;;;8.52;;
13975;SDS011;7062;49.792;9.946;2023-03-04T16:10:16;18.00;;;9.02;;
13975;SDS011;7062;49.792;9.946;2023-03-04T16:12:44;15.60;;;8.57;;
13975;SDS011;7062;49.792;9.946;2023-03-04T16:15:14;16.73;;;8.83;;
13975;SDS011;7062;49.792;9.946;2023-03-04T16:17:42;16.48;;;9.38;;
13975;SDS011;7062;49.792;9.946;2023-03-04T16:20:12;21.52;;;8.40;;
13975;SDS011;7062;49.792;9.946;2023-03-04T16:22:41;15.68;;;9.10;;
13975;SDS011;7062;49.792;9.946;2023-03-04T16:25:11;13.68;;;9.38;;
13975;SDS011;7062;49.792;9.946;2023-03-04T16:27:38;13.43;;;9.50;;
13975;SDS011;7062;49.792;9.946;2023-03-04T16:30:05;16.15;;;9.63;;
13975;SDS011;7062;49.792;9.946;2023-03-04T16:32:36;12.77;;;8.60;;
13975;SDS011;7062;49.792;9.946;2023-03-04T16:35:02;17.17;;;9.37;;
13975;SDS011;7062;49.792;9.946;2023-03-04T16:37:28;19.25;;;11.25;;
13975;SDS011;7062;49.792;9.946;2023-03-04T16:39:54;14.83;;;9.90;;
13975;SDS011;7062;49.792;9.946;2023-03-04T16:42:20;16.20;;;10.70;;
13975;SDS011;7062;49.792;9.946;2023-03-04T16:44:49;13.57;;;9.68;;
13975;SDS011;7062;49.792;9.946;2023-03-04T16:47:15;16.90;;;10.80;;
13975;SDS011;7062;49.792;9.946;2023-03-04T16:49:41;20.23;;;9.57;;
13975;SDS011;7062;49.792;9.946;2023-03-04T16:52:07;17.53;;;10.13;;
13975;SDS011;7062;49.792;9.946;2023-03-04T16:54:50;18.05;;;9.60;;
13975;SDS011;7062;49.792;9.946;2023-03-04T16:57:16;15.80;;;9.67;;
13975;SDS011;7062;49.792;9.946;2023-03-04T16:59:41;14.80;;;9.87;;